Terminal Aerodrome Forecast
Issued by NWS

Home | Current Version | Previous Version | Text Only | Print | Product List | Glossary On
Versions: 1 2 3 4 5 6 7 8 9 10 11 12 13 14
000
FTUS43 KJKL 020500
TAFSJS
TAF
KSJS 020535Z 0206/0306 13004KT P6SM FEW050 BKN120
     FM020900 00000KT 4SM BR SCT001
      TEMPO 0210/0212 1SM BR VV003
     FM021300 00000KT 4SM BR OVC050
     FM021400 31003KT P6SM VCTS SCT060CB BKN100
     FM030000 00000KT P6SM BKN050=

USA.gov is the U.S. government's official web portal to all federal, state and local government web resources and services.